Time;durP1;ratioP1;P1;durP2;ratioP2;P2;SDS_P1;SDS_P2;PMS_P1;PMS_P2;Temp;Humidity;BMP_temperature;BMP_pressure;BME280_temperature;BME280_humidity;BME280_pressure;Samples;Min_cycle;Max_cycle;Signal;HPM_P1;HPM_P2
2024/03/26 00:05:25;;;;;;;4.55;2.20;;;3.80;99.90;;;;;;12487406;28;20056;-79
2024/03/26 00:11:26;;;;;;;2.95;1.83;;;3.80;99.90;;;;;;12466765;28;20512;-79
2024/03/26 00:17:27;;;;;;;4.40;2.60;;;3.70;99.90;;;;;;12486416;28;20064;-78
2024/03/26 00:23:28;;;;;;;6.15;2.65;;;3.80;99.90;;;;;;12485518;28;20124;-87
2024/03/26 00:29:29;;;;;;;5.93;2.78;;;3.90;99.90;;;;;;12463069;28;20133;-86
2024/03/26 00:35:34;;;;;;;5.38;3.10;;;4.00;99.90;;;;;;12483648;28;20138;-82
2024/03/26 00:41:35;;;;;;;4.65;2.70;;;4.00;99.90;;;;;;12481126;28;20065;-87
2024/03/26 00:47:36;;;;;;;3.50;2.10;;;4.00;99.90;;;;;;12457680;28;20045;-87
2024/03/26 00:53:37;;;;;;;3.95;2.20;;;4.00;99.90;;;;;;12461164;28;20175;-87
2024/03/26 00:59:38;;;;;;;6.28;2.60;;;4.00;99.90;;;;;;12498034;28;20056;-86
2024/03/26 01:05:38;;;;;;;5.82;2.20;;;3.80;99.90;;;;;;12503305;28;20049;-79
2024/03/26 01:11:39;;;;;;;5.18;2.33;;;3.90;99.90;;;;;;12517042;28;20090;-81
2024/03/26 01:17:40;;;;;;;9.55;2.38;;;3.90;99.90;;;;;;12509810;28;20061;-80
2024/03/26 01:23:41;;;;;;;4.10;1.98;;;3.80;99.90;;;;;;12502695;28;20048;-80
2024/03/26 01:29:42;;;;;;;4.43;2.30;;;3.60;99.90;;;;;;12512465;28;20180;-81
2024/03/26 01:35:53;;;;;;;5.45;2.40;;;3.60;99.90;;;;;;12535296;28;20056;-85
2024/03/26 01:41:54;;;;;;;4.30;2.10;;;3.60;99.90;;;;;;12540956;28;20044;-85
2024/03/26 01:47:55;;;;;;;2.88;2.00;;;3.60;99.90;;;;;;12520414;28;20052;-85
2024/03/26 01:53:56;;;;;;;4.40;2.00;;;3.70;99.90;;;;;;12531374;28;20406;-85
2024/03/26 01:59:57;;;;;;;5.60;2.88;;;3.60;99.90;;;;;;12527506;28;20074;-82
2024/03/26 02:05:58;;;;;;;5.03;2.47;;;3.40;99.90;;;;;;12526550;28;20064;-84
2024/03/26 02:11:59;;;;;;;6.47;2.03;;;3.30;99.90;;;;;;12529533;28;20053;-84
2024/03/26 02:18:00;;;;;;;5.32;2.72;;;3.10;99.90;;;;;;12513936;28;20057;-85
2024/03/26 02:24:02;;;;;;;8.32;3.47;;;3.10;99.90;;;;;;12517097;28;20048;-84
2024/03/26 02:30:03;;;;;;;6.88;2.45;;;3.10;99.90;;;;;;12520283;28;20040;-84
2024/03/26 02:36:05;;;;;;;5.07;2.15;;;3.20;99.90;;;;;;12512412;28;20053;-85
2024/03/26 02:42:06;;;;;;;5.55;2.22;;;3.40;99.90;;;;;;12543118;28;20106;-85
2024/03/26 02:48:07;;;;;;;5.97;2.00;;;3.40;99.90;;;;;;12516976;28;20186;-85
2024/03/26 02:54:08;;;;;;;4.68;2.33;;;3.40;99.90;;;;;;12518146;28;20049;-84
2024/03/26 03:00:10;;;;;;;4.30;2.30;;;3.50;99.90;;;;;;12493820;28;20062;-85
2024/03/26 03:06:12;;;;;;;3.95;2.08;;;3.40;99.90;;;;;;12469660;28;20608;-85
2024/03/26 03:12:13;;;;;;;5.20;2.53;;;3.50;99.90;;;;;;12471510;28;20150;-85
2024/03/26 03:18:14;;;;;;;5.88;2.40;;;3.50;99.90;;;;;;12475867;28;20061;-84
2024/03/26 03:24:15;;;;;;;5.28;2.47;;;3.50;99.90;;;;;;12499579;28;20052;-84
2024/03/26 03:30:16;;;;;;;4.70;2.20;;;3.40;99.90;;;;;;12470104;28;21367;-84
2024/03/26 03:36:17;;;;;;;3.00;2.30;;;3.50;99.90;;;;;;12473763;28;20067;-83
2024/03/26 03:42:18;;;;;;;7.75;2.28;;;3.50;99.90;;;;;;12480967;28;20057;-83
2024/03/26 03:48:19;;;;;;;3.92;2.60;;;3.50;99.90;;;;;;12454413;28;20049;-84
2024/03/26 03:54:20;;;;;;;5.50;2.47;;;3.60;99.90;;;;;;12464105;28;20401;-83
2024/03/26 04:00:21;;;;;;;5.07;2.20;;;3.60;99.90;;;;;;12456283;28;20090;-83
2024/03/26 04:06:22;;;;;;;7.00;2.22;;;3.60;99.90;;;;;;12463127;28;20477;-83
2024/03/26 04:12:23;;;;;;;5.18;2.25;;;3.70;99.90;;;;;;12454046;28;20061;-82
2024/03/26 04:18:23;;;;;;;6.55;2.40;;;3.80;99.90;;;;;;12458845;28;20061;-83
2024/03/26 04:24:24;;;;;;;3.53;1.92;;;3.80;99.90;;;;;;12476529;28;20053;-83
2024/03/26 04:30:25;;;;;;;5.22;2.50;;;3.80;99.90;;;;;;12479870;28;20056;-83
2024/03/26 04:36:26;;;;;;;4.07;2.10;;;3.80;99.90;;;;;;12481187;28;20053;-83
2024/03/26 04:42:28;;;;;;;7.68;2.55;;;3.80;99.90;;;;;;12481088;28;20064;-83
2024/03/26 04:48:29;;;;;;;4.13;2.47;;;3.80;99.90;;;;;;12477963;28;20042;-83
2024/03/26 04:54:30;;;;;;;6.80;2.40;;;3.70;99.90;;;;;;12455380;28;20057;-83
2024/03/26 05:00:31;;;;;;;6.57;2.25;;;3.80;99.90;;;;;;12482526;28;20115;-84
2024/03/26 05:06:32;;;;;;;4.15;2.10;;;3.70;99.90;;;;;;12466722;28;20464;-84
2024/03/26 05:12:33;;;;;;;4.35;2.30;;;3.60;99.90;;;;;;12472141;28;20049;-84
2024/03/26 05:18:34;;;;;;;3.47;2.25;;;3.50;99.90;;;;;;12455892;28;20516;-84
2024/03/26 05:24:35;;;;;;;6.82;2.38;;;3.50;99.90;;;;;;12452896;28;20057;-85
2024/03/26 05:30:37;;;;;;;6.60;2.45;;;3.50;99.90;;;;;;12476944;28;20092;-84
2024/03/26 05:36:38;;;;;;;5.70;2.20;;;3.60;99.90;;;;;;12453597;28;20487;-85
2024/03/26 05:42:39;;;;;;;4.53;2.17;;;3.60;99.90;;;;;;12455015;28;20092;-79
2024/03/26 05:48:40;;;;;;;4.93;2.00;;;3.60;99.90;;;;;;12473640;28;20049;-80
2024/03/26 05:54:41;;;;;;;3.95;2.08;;;3.70;99.90;;;;;;12471875;28;20053;-79
2024/03/26 06:00:41;;;;;;;3.53;2.25;;;3.80;99.90;;;;;;12481619;28;20060;-79
2024/03/26 06:06:42;;;;;;;4.68;2.30;;;3.80;99.90;;;;;;12538080;28;20049;-79
2024/03/26 06:12:43;;;;;;;4.43;2.70;;;3.80;99.90;;;;;;12503525;28;20084;-84
2024/03/26 06:18:44;;;;;;;6.35;2.17;;;3.90;99.90;;;;;;12507589;28;20055;-85
2024/03/26 06:24:45;;;;;;;5.40;2.33;;;4.00;99.90;;;;;;12499939;28;20045;-84
2024/03/26 06:30:46;;;;;;;4.05;1.95;;;4.10;99.90;;;;;;12503316;28;20056;-86
2024/03/26 06:36:47;;;;;;;3.10;1.80;;;4.30;99.90;;;;;;12498136;28;20053;-85
2024/03/26 06:42:48;;;;;;;3.80;1.90;;;4.50;99.90;;;;;;12507544;28;20139;-85
2024/03/26 06:48:50;;;;;;;7.80;2.80;;;4.70;99.90;;;;;;12518269;28;20045;-84
2024/03/26 06:54:51;;;;;;;4.30;2.30;;;4.70;99.90;;;;;;12500854;28;20059;-79
2024/03/26 07:00:51;;;;;;;4.18;2.03;;;4.90;99.90;;;;;;12502022;28;20099;-80
2024/03/26 07:06:52;;;;;;;5.32;2.35;;;5.10;99.90;;;;;;12509253;28;20080;-80
2024/03/26 07:12:53;;;;;;;4.30;2.17;;;5.30;99.90;;;;;;12496126;28;20045;-80
2024/03/26 07:18:54;;;;;;;5.88;2.50;;;5.50;99.90;;;;;;12503285;28;20057;-80
2024/03/26 07:24:55;;;;;;;5.53;2.83;;;5.70;99.90;;;;;;12520910;28;20417;-79
2024/03/26 07:30:56;;;;;;;4.85;2.35;;;5.70;99.90;;;;;;12512466;28;20080;-79
2024/03/26 07:36:57;;;;;;;5.30;2.30;;;5.70;99.90;;;;;;12510761;28;20060;-80
2024/03/26 07:42:58;;;;;;;4.30;2.38;;;5.80;99.90;;;;;;12496899;28;20049;-79
2024/03/26 07:48:59;;;;;;;3.20;2.28;;;5.90;99.90;;;;;;12515724;28;20052;-80
2024/03/26 07:55:01;;;;;;;3.28;2.20;;;6.20;99.90;;;;;;12508943;28;20057;-81
2024/03/26 08:01:03;;;;;;;4.25;2.38;;;6.70;99.90;;;;;;12523091;28;20127;-79
2024/03/26 08:07:04;;;;;;;3.30;2.28;;;7.10;99.90;;;;;;12510206;28;20053;-87
2024/03/26 08:13:05;;;;;;;3.35;2.35;;;7.40;99.90;;;;;;12510402;28;20056;-83
2024/03/26 08:19:06;;;;;;;4.15;1.95;;;7.70;99.90;;;;;;12508857;28;20087;-84
2024/03/26 08:25:08;;;;;;;2.72;2.35;;;7.90;99.90;;;;;;12501850;28;20095;-84
2024/03/26 08:31:08;;;;;;;3.60;2.05;;;8.10;99.90;;;;;;12528850;28;20390;-84
2024/03/26 08:37:09;;;;;;;4.38;2.08;;;8.40;99.90;;;;;;12525590;28;20049;-77
2024/03/26 08:43:11;;;;;;;1.98;1.55;;;8.50;99.90;;;;;;12514292;28;20049;-79
2024/03/26 08:49:11;;;;;;;3.63;2.00;;;8.50;99.90;;;;;;12528412;28;20063;-77
2024/03/26 08:55:13;;;;;;;3.38;1.63;;;8.40;99.90;;;;;;12505411;28;20060;-77
2024/03/26 09:01:14;;;;;;;5.85;1.88;;;8.20;99.90;;;;;;12522725;28;20071;-80
2024/03/26 09:07:15;;;;;;;4.43;1.60;;;8.40;99.90;;;;;;12524689;28;20055;-79
2024/03/26 09:13:16;;;;;;;2.22;1.50;;;8.70;99.90;;;;;;12530206;28;20493;-78
2024/03/26 09:19:17;;;;;;;4.82;1.60;;;8.70;99.90;;;;;;12539907;28;20061;-87
2024/03/26 09:25:18;;;;;;;3.17;1.60;;;8.80;99.90;;;;;;12495086;28;20049;-86
2024/03/26 09:31:19;;;;;;;2.75;1.40;;;8.90;99.90;;;;;;12516754;28;20049;-85
2024/03/26 09:37:20;;;;;;;2.80;1.35;;;8.90;99.90;;;;;;12523389;28;20075;-87
2024/03/26 09:43:22;;;;;;;3.08;1.50;;;9.00;99.90;;;;;;12495841;28;20061;-89
2024/03/26 09:49:25;;;;;;;2.97;1.30;;;8.90;99.90;;;;;;12506835;28;20052;-81
2024/03/26 09:55:31;;;;;;;2.40;1.35;;;8.90;99.90;;;;;;12507237;28;20070;-82
2024/03/26 10:01:33;;;;;;;3.03;1.45;;;9.00;99.90;;;;;;12520074;28;20060;-83
2024/03/26 10:07:35;;;;;;;4.38;1.40;;;9.20;99.90;;;;;;12503150;28;20099;-82
2024/03/26 10:13:36;;;;;;;3.30;1.55;;;9.50;99.90;;;;;;12520502;28;20037;-81
2024/03/26 10:19:37;;;;;;;3.72;1.48;;;9.70;99.90;;;;;;12502003;28;20124;-82
2024/03/26 10:25:37;;;;;;;3.80;1.40;;;9.80;99.90;;;;;;12498580;28;20797;-80
2024/03/26 10:31:39;;;;;;;3.60;1.40;;;9.80;99.90;;;;;;12524311;28;20128;-79
2024/03/26 10:37:40;;;;;;;2.33;1.40;;;9.60;99.90;;;;;;12528922;28;20060;-85
2024/03/26 10:43:41;;;;;;;5.07;1.48;;;9.40;99.90;;;;;;12523593;28;20057;-80
2024/03/26 10:49:43;;;;;;;3.00;1.45;;;9.60;99.90;;;;;;12504925;28;20471;-81
2024/03/26 10:55:45;;;;;;;2.65;1.40;;;9.80;99.90;;;;;;12521948;28;20056;-84
2024/03/26 11:01:47;;;;;;;3.67;1.55;;;9.90;99.90;;;;;;12502802;28;20052;-88
2024/03/26 11:07:49;;;;;;;7.50;1.25;;;10.20;99.90;;;;;;12514150;28;20053;-89
2024/03/26 11:13:56;;;;;;;2.75;1.33;;;10.30;99.90;;;;;;12508305;28;20048;-89
2024/03/26 11:19:57;;;;;;;1.65;0.90;;;10.10;99.90;;;;;;12491063;28;20057;-83
2024/03/26 11:25:58;;;;;;;1.80;1.20;;;10.10;99.90;;;;;;12500902;28;20423;-87
2024/03/26 11:32:00;;;;;;;3.30;1.25;;;10.20;99.90;;;;;;12514135;28;20444;-88
2024/03/26 11:38:01;;;;;;;2.70;1.08;;;10.30;99.90;;;;;;12514751;28;20505;-88
2024/03/26 11:44:02;;;;;;;8.35;1.05;;;10.30;99.90;;;;;;12494302;28;20358;-87
2024/03/26 11:50:04;;;;;;;3.00;0.95;;;10.30;99.90;;;;;;12511706;28;20066;-87
2024/03/26 11:56:05;;;;;;;4.65;1.30;;;10.10;99.90;;;;;;12494757;28;20115;-88
2024/03/26 12:02:06;;;;;;;2.90;1.05;;;10.00;99.90;;;;;;12464032;28;20457;-87
2024/03/26 12:08:07;;;;;;;1.73;1.00;;;9.90;99.90;;;;;;12459531;28;20057;-81
2024/03/26 12:14:09;;;;;;;2.92;1.25;;;10.10;99.90;;;;;;12481963;28;20421;-81
2024/03/26 12:20:10;;;;;;;3.97;1.00;;;10.40;99.90;;;;;;12465730;28;20049;-80
2024/03/26 12:26:11;;;;;;;1.92;1.08;;;10.70;99.90;;;;;;12493831;28;20054;-79
2024/03/26 12:32:13;;;;;;;2.22;1.05;;;10.70;99.90;;;;;;12484395;28;20054;-81
2024/03/26 12:38:14;;;;;;;3.28;1.20;;;10.80;99.90;;;;;;12479202;28;20057;-83
2024/03/26 12:44:15;;;;;;;4.30;1.40;;;10.90;99.90;;;;;;12475825;28;20034;-86
2024/03/26 12:50:16;;;;;;;3.72;1.08;;;10.90;99.90;;;;;;12528648;28;20067;-82
2024/03/26 12:56:17;;;;;;;2.90;1.27;;;10.90;99.90;;;;;;12514419;28;20057;-83
2024/03/26 13:02:18;;;;;;;2.67;1.10;;;11.00;99.90;;;;;;12490121;28;20061;-82
2024/03/26 13:08:19;;;;;;;2.97;1.40;;;11.00;99.90;;;;;;12498897;28;20469;-82
2024/03/26 13:14:19;;;;;;;2.63;1.50;;;10.90;99.90;;;;;;12474833;28;20053;-83
2024/03/26 13:20:21;;;;;;;1.80;1.08;;;11.00;99.90;;;;;;12478729;28;20053;-87
2024/03/26 13:26:22;;;;;;;2.70;1.10;;;11.00;99.90;;;;;;12474547;28;20058;-86
2024/03/26 13:32:23;;;;;;;4.78;1.30;;;11.10;99.90;;;;;;12476515;28;20053;-88
2024/03/26 13:38:24;;;;;;;2.13;1.05;;;11.10;99.90;;;;;;12468587;28;20060;-85
2024/03/26 13:44:25;;;;;;;4.15;2.08;;;11.10;99.90;;;;;;12464965;28;20045;-88
2024/03/26 13:50:26;;;;;;;2.95;1.30;;;11.20;99.90;;;;;;12470334;28;20049;-86
2024/03/26 13:56:26;;;;;;;2.50;1.17;;;11.50;99.90;;;;;;12454750;28;20053;-89
2024/03/26 14:02:27;;;;;;;4.05;1.17;;;11.50;99.90;;;;;;12501079;28;20057;-89
2024/03/26 14:08:28;;;;;;;2.70;1.05;;;11.70;99.90;;;;;;12522703;28;20544;-87
2024/03/26 14:14:29;;;;;;;2.45;1.17;;;11.70;99.90;;;;;;12517919;28;20056;-87
2024/03/26 14:20:30;;;;;;;2.25;1.10;;;11.60;99.90;;;;;;12520653;28;20489;-88
2024/03/26 14:26:31;;;;;;;3.38;1.10;;;11.60;99.90;;;;;;12502587;28;20489;-88
2024/03/26 14:32:32;;;;;;;2.90;1.20;;;11.50;99.90;;;;;;12516911;28;20049;-82
2024/03/26 14:38:33;;;;;;;2.45;1.00;;;11.50;99.90;;;;;;12493984;28;20083;-82
2024/03/26 14:44:34;;;;;;;2.00;1.20;;;11.60;99.90;;;;;;12490009;28;20135;-82
2024/03/26 14:50:35;;;;;;;3.40;1.25;;;11.60;99.90;;;;;;12520587;28;20124;-83
2024/03/26 14:56:36;;;;;;;5.10;1.10;;;11.60;99.90;;;;;;12519910;28;20057;-83
2024/03/26 15:02:38;;;;;;;1.85;1.10;;;11.60;99.90;;;;;;12501102;28;20065;-83
2024/03/26 15:08:39;;;;;;;2.38;1.13;;;11.60;99.90;;;;;;12514952;28;20049;-85
2024/03/26 15:14:40;;;;;;;2.22;1.05;;;11.50;99.90;;;;;;12505647;28;20057;-87
2024/03/26 15:20:41;;;;;;;2.50;1.13;;;11.40;99.90;;;;;;12498007;28;20056;-85
2024/03/26 15:33:01;;;;;;;2.20;1.10;;;11.40;99.90;;;;;;12532769;28;20509;-82
2024/03/26 15:39:02;;;;;;;2.67;1.02;;;11.40;99.90;;;;;;12500610;28;20102;-82
2024/03/26 15:45:03;;;;;;;2.63;1.10;;;11.20;99.90;;;;;;12510565;28;20106;-81
2024/03/26 15:51:04;;;;;;;4.20;1.25;;;11.20;99.90;;;;;;12513956;28;20061;-81
2024/03/26 15:57:05;;;;;;;2.80;1.20;;;11.30;99.90;;;;;;12513076;28;20053;-80
2024/03/26 16:03:06;;;;;;;3.30;1.40;;;11.30;99.90;;;;;;12486517;28;20141;-86
2024/03/26 16:09:07;;;;;;;2.28;1.10;;;11.40;99.90;;;;;;12464200;28;20067;-82
2024/03/26 16:15:09;;;;;;;4.22;1.10;;;11.30;99.90;;;;;;12447082;28;20065;-81
2024/03/26 16:21:12;;;;;;;2.78;1.08;;;11.30;99.90;;;;;;12466518;28;20516;-80
2024/03/26 16:27:13;;;;;;;2.83;1.23;;;11.20;99.90;;;;;;12461621;28;20141;-81
2024/03/26 16:33:14;;;;;;;3.53;1.15;;;11.30;99.90;;;;;;12474851;28;20144;-81
2024/03/26 16:39:15;;;;;;;3.28;1.30;;;11.20;99.90;;;;;;12466935;28;20050;-80
2024/03/26 16:45:16;;;;;;;2.60;1.20;;;11.10;99.90;;;;;;12454707;28;20128;-80
2024/03/26 16:51:17;;;;;;;2.33;1.33;;;11.10;99.90;;;;;;12456917;28;20127;-81
2024/03/26 16:57:18;;;;;;;2.67;1.35;;;11.00;99.90;;;;;;12468437;28;20129;-80
2024/03/26 17:03:19;;;;;;;3.60;1.63;;;10.90;99.90;;;;;;12447887;28;20061;-81
2024/03/26 17:09:20;;;;;;;4.35;1.50;;;10.70;99.90;;;;;;12456131;28;20402;-80
2024/03/26 17:15:21;;;;;;;7.18;2.58;;;10.50;99.90;;;;;;12463387;28;20107;-80
2024/03/26 17:21:22;;;;;;;6.13;2.28;;;10.50;99.90;;;;;;12455452;28;20080;-81
2024/03/26 17:27:23;;;;;;;5.38;3.15;;;10.50;99.90;;;;;;12465339;28;20046;-83
2024/03/26 17:33:25;;;;;;;3.20;1.75;;;10.40;99.90;;;;;;12467579;28;20383;-82
2024/03/26 17:39:26;;;;;;;12.70;4.43;;;10.20;99.90;;;;;;12468843;28;20517;-83
2024/03/26 17:45:27;;;;;;;32.13;14.63;;;10.00;99.90;;;;;;12451268;28;20081;-82
2024/03/26 17:51:28;;;;;;;16.33;9.30;;;9.90;99.90;;;;;;12450185;28;20054;-82
2024/03/26 17:57:30;;;;;;;7.63;4.80;;;9.70;99.90;;;;;;12459199;28;20141;-82
2024/03/26 18:03:31;;;;;;;4.63;2.20;;;9.80;99.90;;;;;;12502599;28;20053;-81
2024/03/26 18:09:31;;;;;;;6.22;2.20;;;9.70;99.90;;;;;;12495636;28;20123;-84
2024/03/26 18:15:36;;;;;;;3.63;1.98;;;9.60;99.90;;;;;;12502894;28;20049;-82
2024/03/26 18:21:37;;;;;;;;;;;9.60;99.90;;;;;;12515865;28;20053;-85
2024/03/26 18:27:38;;;;;;;6.47;2.53;;;9.50;99.90;;;;;;12519390;28;19956;-80
2024/03/26 18:33:39;;;;;;;5.18;2.80;;;9.50;99.90;;;;;;12520558;28;20485;-86
2024/03/26 18:39:40;;;;;;;5.80;3.20;;;9.70;99.90;;;;;;12514678;28;20061;-84
2024/03/26 18:45:40;;;;;;;7.65;2.80;;;9.80;99.90;;;;;;12528054;28;20083;-88
2024/03/26 18:51:41;;;;;;;9.63;5.18;;;9.90;99.90;;;;;;12509838;28;20057;-83
2024/03/26 18:57:42;;;;;;;7.15;2.90;;;10.00;99.90;;;;;;12513822;28;20528;-84
2024/03/26 19:03:46;;;;;;;5.75;2.85;;;10.00;99.90;;;;;;12486186;28;20068;-87
2024/03/26 19:09:47;;;;;;;5.63;3.20;;;9.90;99.90;;;;;;12472026;28;20056;-86
2024/03/26 19:15:48;;;;;;;6.55;3.63;;;9.90;99.90;;;;;;12458633;28;20054;-81
2024/03/26 19:21:49;;;;;;;4.75;3.20;;;10.00;99.90;;;;;;12453333;28;20049;-81
2024/03/26 19:27:49;;;;;;;6.10;2.85;;;10.00;99.90;;;;;;12463888;28;20041;-81
2024/03/26 19:33:50;;;;;;;7.63;3.80;;;10.00;99.90;;;;;;12466293;28;20049;-84
2024/03/26 19:39:51;;;;;;;8.00;4.65;;;10.10;99.90;;;;;;12458988;28;20069;-82
2024/03/26 19:46:03;;;;;;;5.68;3.50;;;10.00;99.90;;;;;;12459598;28;20049;-81
2024/03/26 19:52:04;;;;;;;6.47;3.63;;;10.00;99.90;;;;;;12449813;28;20053;-80
2024/03/26 19:58:05;;;;;;;7.93;3.80;;;9.80;99.90;;;;;;12455576;28;20484;-80
2024/03/26 20:04:07;;;;;;;6.03;3.08;;;9.80;99.90;;;;;;12496029;28;20053;-82
2024/03/26 20:10:09;;;;;;;6.40;3.60;;;9.90;99.90;;;;;;12459203;28;20053;-82
2024/03/26 20:16:11;;;;;;;6.57;4.07;;;9.90;99.90;;;;;;12467054;28;20513;-82
2024/03/26 20:22:13;;;;;;;5.38;3.63;;;9.90;99.90;;;;;;12472839;28;20056;-88
2024/03/26 20:28:14;;;;;;;7.20;3.42;;;9.90;99.90;;;;;;12474064;28;20053;-85
2024/03/26 20:34:14;;;;;;;7.78;4.28;;;9.70;99.90;;;;;;12462811;28;20453;-88
2024/03/26 20:40:15;;;;;;;6.68;4.75;;;9.50;99.90;;;;;;12451998;28;20041;-87
2024/03/26 20:46:16;;;;;;;7.47;4.60;;;9.00;99.90;;;;;;12474284;28;20054;-88
2024/03/26 20:52:17;;;;;;;7.07;5.05;;;8.60;99.90;;;;;;12474790;28;20053;-80
2024/03/26 20:58:18;;;;;;;8.90;5.57;;;8.30;99.90;;;;;;12470079;28;20198;-82
2024/03/26 21:04:19;;;;;;;7.65;5.45;;;8.00;99.90;;;;;;12551272;28;20110;-82
2024/03/26 21:10:20;;;;;;;7.80;5.25;;;7.70;99.90;;;;;;12500201;28;20087;-81
2024/03/26 21:16:21;;;;;;;6.78;4.40;;;7.60;99.90;;;;;;12523422;28;20083;-80
2024/03/26 21:22:22;;;;;;;8.80;5.25;;;8.20;99.90;;;;;;12513757;28;20072;-80
2024/03/26 21:28:23;;;;;;;6.63;4.43;;;8.70;99.90;;;;;;12523326;28;20519;-81
2024/03/26 21:34:24;;;;;;;8.75;4.97;;;8.80;99.90;;;;;;12535661;28;20051;-83
2024/03/26 21:40:25;;;;;;;7.45;4.65;;;8.70;99.90;;;;;;12524297;28;20044;-80
2024/03/26 21:46:26;;;;;;;9.77;5.05;;;8.90;99.90;;;;;;12523123;28;20120;-80
2024/03/26 21:52:27;;;;;;;8.23;4.70;;;9.00;99.90;;;;;;12524991;28;20045;-79
2024/03/26 21:58:29;;;;;;;7.43;5.10;;;9.00;99.90;;;;;;12509587;28;20068;-84
2024/03/26 22:04:32;;;;;;;8.05;5.45;;;8.70;99.90;;;;;;12519124;28;20051;-81
2024/03/26 22:10:37;;;;;;;9.73;5.80;;;8.40;99.90;;;;;;12516426;28;20049;-80
2024/03/26 22:16:38;;;;;;;7.80;5.45;;;8.00;99.90;;;;;;12532298;28;20106;-83
2024/03/26 22:22:39;;;;;;;8.25;5.20;;;7.70;99.90;;;;;;12537773;28;20539;-82
2024/03/26 22:28:40;;;;;;;9.10;5.82;;;7.50;99.90;;;;;;12507880;28;20052;-80
2024/03/26 22:34:41;;;;;;;12.02;6.30;;;7.10;99.90;;;;;;12516909;28;20063;-81
2024/03/26 22:40:42;;;;;;;10.60;5.95;;;6.90;99.90;;;;;;12510460;28;20057;-81
2024/03/26 22:46:42;;;;;;;8.48;5.32;;;6.80;99.90;;;;;;12505452;28;20084;-89
2024/03/26 22:52:43;;;;;;;10.25;5.78;;;6.70;99.90;;;;;;12500868;28;20081;-88
2024/03/26 22:58:44;;;;;;;10.25;4.93;;;6.70;99.90;;;;;;12507120;28;20091;-88
2024/03/26 23:04:45;;;;;;;8.85;5.45;;;6.60;99.90;;;;;;12507471;28;20512;-87
2024/03/26 23:10:46;;;;;;;9.38;5.07;;;6.60;99.90;;;;;;12502990;28;20045;-86
2024/03/26 23:16:47;;;;;;;9.27;5.15;;;6.50;99.90;;;;;;12510731;28;20052;-81
2024/03/26 23:22:48;;;;;;;11.73;5.50;;;6.50;99.90;;;;;;12516073;28;20056;-80
2024/03/26 23:28:49;;;;;;;7.38;4.90;;;6.40;99.90;;;;;;12534188;28;20509;-80
2024/03/26 23:34:50;;;;;;;9.60;5.15;;;6.50;99.90;;;;;;12526984;28;20053;-80
2024/03/26 23:40:51;;;;;;;9.82;5.25;;;6.60;99.90;;;;;;12507644;28;20049;-80
2024/03/26 23:46:52;;;;;;;9.70;5.25;;;6.50;99.90;;;;;;12522381;28;20053;-80
2024/03/26 23:52:53;;;;;;;10.27;5.57;;;6.50;99.90;;;;;;12531845;28;20049;-81
2024/03/26 23:58:54;;;;;;;8.88;5.60;;;6.50;99.90;;;;;;12507818;28;20056;-80
